Terminal Aerodrome Forecast
Issued by NWS

Home | Current Version | Previous Version | Graphics & Text | Print | Product List | Glossary On
Versions: 1 2 3 4 5 6 7 8 9 10 11 12 13 14 15 16 17 18 19 20 21 22 23 24 25
000
FTUS43 KABR 202333
TAFATY
TAF
KATY 202333Z 2100/2124 05006KT P6SM SCT250
     FM210900 14009KT P6SM BKN110
     FM211500 16014G22KT P6SM BKN200
     FM212100 20010KT P6SM SCT120=

USA.gov is the U.S. government's official web portal to all federal, state and local government web resources and services.